createdAt,value
2019-03-11T00:04:50.600Z,4.20
2019-03-11T00:07:38.898Z,4.20
2019-03-11T00:10:27.017Z,4.20
2019-03-11T00:13:15.151Z,4.20
2019-03-11T00:16:03.272Z,4.20
2019-03-11T00:18:43.988Z,4.20
2019-03-11T00:21:24.680Z,4.20
2019-03-11T00:24:05.494Z,4.00
2019-03-11T00:26:46.078Z,4.00
2019-03-11T00:29:27.014Z,3.90
2019-03-11T00:32:07.939Z,3.80
2019-03-11T00:34:48.658Z,3.60
2019-03-11T00:37:29.578Z,3.40
2019-03-11T00:40:10.663Z,3.30
2019-03-11T00:42:51.517Z,3.20
2019-03-11T00:45:32.527Z,3.00
2019-03-11T00:48:13.471Z,3.00
2019-03-11T00:50:54.242Z,2.90
2019-03-11T00:53:34.970Z,2.80
2019-03-11T00:56:15.447Z,2.70
2019-03-11T00:58:56.353Z,2.60
2019-03-11T01:01:36.929Z,2.60
2019-03-11T01:04:17.805Z,2.50
2019-03-11T01:06:58.834Z,2.40
2019-03-11T01:09:39.702Z,2.30
2019-03-11T01:12:20.313Z,2.10
2019-03-11T01:15:01.170Z,2.20
2019-03-11T01:17:42.341Z,2.20
2019-03-11T01:20:23.149Z,2.30
2019-03-11T01:23:03.973Z,2.50
2019-03-11T01:25:44.730Z,2.60
2019-03-11T01:28:25.191Z,2.60
2019-03-11T01:31:05.958Z,2.80
2019-03-11T01:33:46.925Z,2.70
2019-03-11T01:36:27.821Z,2.80
2019-03-11T01:39:08.775Z,2.90
2019-03-11T01:41:49.549Z,3.10
2019-03-11T01:44:30.278Z,3.20
2019-03-11T01:47:11.509Z,4.20
2019-03-11T01:49:52.219Z,3.20
2019-03-11T01:52:33.146Z,3.30
2019-03-11T01:55:13.749Z,3.40
2019-03-11T01:57:54.591Z,3.40
2019-03-11T02:00:35.623Z,3.40
2019-03-11T02:03:16.265Z,3.40
2019-03-11T02:05:56.873Z,3.50
2019-03-11T02:08:37.502Z,3.60
2019-03-11T02:11:18.175Z,3.60
2019-03-11T02:13:59.218Z,3.70
2019-03-11T02:16:40.105Z,3.80
2019-03-11T02:19:20.865Z,3.80
2019-03-11T02:22:01.632Z,3.90
2019-03-11T02:24:42.404Z,4.00
2019-03-11T02:27:23.185Z,3.90
2019-03-11T02:30:03.967Z,3.90
2019-03-11T02:32:44.940Z,3.90
2019-03-11T02:35:25.803Z,3.90
2019-03-11T02:38:06.598Z,4.00
2019-03-11T02:40:47.533Z,4.00
2019-03-11T02:43:28.532Z,4.00
2019-03-11T02:46:09.153Z,3.90
2019-03-11T02:48:49.579Z,3.90
2019-03-11T02:51:30.312Z,3.90
2019-03-11T02:54:11.364Z,3.80
2019-03-11T02:56:51.808Z,3.80
2019-03-11T02:59:32.701Z,3.70
2019-03-11T03:02:32.140Z,3.70
2019-03-11T03:08:10.442Z,3.50
2019-03-11T03:10:51.197Z,3.40
2019-03-11T03:13:31.953Z,3.30
2019-03-11T03:16:12.602Z,3.30
2019-03-11T03:18:53.330Z,3.10
2019-03-11T03:21:34.229Z,3.20
2019-03-11T03:24:15.302Z,3.40
2019-03-11T03:26:55.774Z,3.50
2019-03-11T03:29:36.381Z,3.50
2019-03-11T03:32:17.047Z,3.60
2019-03-11T03:34:58.079Z,3.60
2019-03-11T03:37:38.510Z,3.70
2019-03-11T03:40:19.378Z,3.70
2019-03-11T03:43:00.277Z,3.70
2019-03-11T03:45:40.885Z,3.70
2019-03-11T03:48:29.067Z,3.70
2019-03-11T03:51:17.396Z,3.60
2019-03-11T03:54:05.522Z,3.60
2019-03-11T03:56:54.255Z,3.60
2019-03-11T03:59:43.345Z,3.60
2019-03-11T04:02:31.445Z,3.70
2019-03-11T04:05:19.633Z,3.80
2019-03-11T04:08:07.814Z,3.70
2019-03-11T04:10:56.210Z,3.80
2019-03-11T04:13:44.336Z,3.80
2019-03-11T04:16:32.631Z,3.70
2019-03-11T04:19:13.767Z,3.60
2019-03-11T04:21:54.545Z,3.50
2019-03-11T04:24:35.464Z,3.50
2019-03-11T04:27:16.591Z,3.50
2019-03-11T04:29:56.938Z,3.40
2019-03-11T04:32:37.722Z,3.40
2019-03-11T04:35:18.350Z,3.40
2019-03-11T04:37:58.962Z,3.40
2019-03-11T04:40:39.498Z,3.40
2019-03-11T04:43:18.733Z,3.30
2019-03-11T04:46:07.187Z,3.30
2019-03-11T04:48:55.303Z,3.30
2019-03-11T04:51:43.358Z,3.30
2019-03-11T04:54:31.713Z,3.30
2019-03-11T04:57:19.845Z,3.30
2019-03-11T05:00:08.110Z,3.20
2019-03-11T05:02:56.463Z,3.20
2019-03-11T05:05:44.646Z,3.20
2019-03-11T05:08:32.775Z,3.20
2019-03-11T05:11:20.889Z,3.30
2019-03-11T05:14:09.321Z,3.30
2019-03-11T05:16:50.282Z,3.30
2019-03-11T05:19:31.167Z,3.30
2019-03-11T05:22:12.266Z,3.30
2019-03-11T05:24:53.086Z,3.40
2019-03-11T05:27:33.793Z,3.50
2019-03-11T05:30:14.438Z,3.50
2019-03-11T05:32:55.090Z,3.60
2019-03-11T05:35:35.746Z,3.70
2019-03-11T05:38:16.582Z,3.70
2019-03-11T05:40:57.218Z,3.70
2019-03-11T05:43:38.185Z,3.70
2019-03-11T05:46:19.137Z,3.80
2019-03-11T05:48:58.604Z,3.80
2019-03-11T05:51:46.889Z,3.70
2019-03-11T05:54:35.297Z,3.70
2019-03-11T05:57:23.392Z,3.70
2019-03-11T06:03:07.864Z,3.70
2019-03-11T06:05:55.981Z,3.70
2019-03-11T06:08:44.458Z,3.70
2019-03-11T06:11:32.499Z,3.70
2019-03-11T06:14:20.597Z,3.70
2019-03-11T06:17:01.756Z,3.80
2019-03-11T06:19:42.832Z,3.90
2019-03-11T06:22:27.295Z,3.90
2019-03-11T06:25:08.491Z,3.80
2019-03-11T06:27:49.165Z,3.80
2019-03-11T06:30:29.731Z,3.80
2019-03-11T06:33:10.097Z,3.90
2019-03-11T06:35:51.299Z,3.90
2019-03-11T06:38:32.274Z,4.00
2019-03-11T06:41:12.711Z,4.20
2019-03-11T06:43:53.206Z,4.30
2019-03-11T06:46:33.748Z,4.20
2019-03-11T06:49:14.933Z,4.40
2019-03-11T06:51:55.673Z,4.40
2019-03-11T06:54:36.690Z,4.40
2019-03-11T06:57:17.217Z,4.50
2019-03-11T06:59:57.594Z,4.50
2019-03-11T07:02:38.157Z,4.40
2019-03-11T07:05:21.009Z,4.40
2019-03-11T07:08:01.422Z,4.50
2019-03-11T07:10:42.059Z,4.50
2019-03-11T07:13:23.101Z,4.50
2019-03-11T07:16:04.331Z,4.50
2019-03-11T07:18:45.652Z,4.60
2019-03-11T07:21:26.629Z,4.60
2019-03-11T07:24:06.961Z,4.70
2019-03-11T07:26:47.536Z,4.70
2019-03-11T07:29:28.526Z,4.70
2019-03-11T07:32:09.096Z,4.70
2019-03-11T07:34:49.801Z,4.70
2019-03-11T07:37:30.415Z,4.70
2019-03-11T07:40:11.255Z,4.70
2019-03-11T07:42:52.089Z,4.80
2019-03-11T07:45:32.890Z,4.80
2019-03-11T07:48:13.633Z,4.90
2019-03-11T07:50:54.428Z,4.90
2019-03-11T07:53:35.145Z,4.80
2019-03-11T07:56:16.038Z,4.80
2019-03-11T07:58:56.633Z,4.90
2019-03-11T08:01:37.560Z,4.70
2019-03-11T08:04:18.714Z,4.80
2019-03-11T08:06:59.441Z,4.30
2019-03-11T08:09:39.982Z,2.80
2019-03-11T08:12:20.650Z,1.70
2019-03-11T08:15:01.440Z,1.20
2019-03-11T08:17:42.186Z,0.80
2019-03-11T08:20:23.157Z,0.50
2019-03-11T08:23:03.893Z,0.50
2019-03-11T08:25:44.498Z,0.60
2019-03-11T08:28:25.308Z,0.70
2019-03-11T08:31:06.253Z,0.70
2019-03-11T08:33:46.916Z,0.80
2019-03-11T08:36:27.745Z,0.80
2019-03-11T08:39:08.310Z,0.90
2019-03-11T08:41:48.885Z,0.90
2019-03-11T08:44:29.818Z,1.00
2019-03-11T08:47:11.936Z,1.00
2019-03-11T08:49:52.396Z,1.10
2019-03-11T08:52:33.374Z,1.20
2019-03-11T08:55:13.836Z,1.30
2019-03-11T08:57:54.978Z,1.50
2019-03-11T09:00:35.880Z,2.80
2019-03-11T09:03:16.654Z,3.60
2019-03-11T09:05:57.376Z,4.00
2019-03-11T09:08:38.556Z,4.20
2019-03-11T09:11:19.168Z,4.10
2019-03-11T09:14:00.313Z,3.70
2019-03-11T09:16:40.762Z,3.60
2019-03-11T09:19:21.317Z,3.60
2019-03-11T09:22:02.442Z,3.50
2019-03-11T09:24:43.058Z,3.30
2019-03-11T09:27:23.680Z,3.30
2019-03-11T09:30:04.717Z,3.40
2019-03-11T09:32:45.349Z,3.30
2019-03-11T09:35:25.928Z,3.30
2019-03-11T09:38:06.726Z,3.30
2019-03-11T09:40:47.572Z,3.30
2019-03-11T09:43:28.593Z,3.20
2019-03-11T09:46:09.162Z,3.60
2019-03-11T09:48:49.819Z,3.70
2019-03-11T09:51:30.468Z,3.70
2019-03-11T09:54:11.096Z,3.60
2019-03-11T09:56:51.973Z,3.70
2019-03-11T09:59:32.754Z,3.70
2019-03-11T10:02:13.144Z,3.90
2019-03-11T10:04:54.230Z,4.30
2019-03-11T10:07:34.821Z,4.20
2019-03-11T10:10:15.411Z,4.40
2019-03-11T10:12:56.182Z,4.50
2019-03-11T10:15:36.884Z,4.60
2019-03-11T10:18:17.538Z,4.70
2019-03-11T10:20:58.326Z,4.50
2019-03-11T10:23:38.988Z,4.40
2019-03-11T10:26:19.675Z,4.40
2019-03-11T10:29:00.431Z,4.70
2019-03-11T10:31:40.996Z,4.80
2019-03-11T10:34:21.807Z,5.00
2019-03-11T10:37:02.551Z,5.00
2019-03-11T10:39:43.118Z,5.00
2019-03-11T10:42:24.058Z,5.70
2019-03-11T10:45:04.917Z,7.20
2019-03-11T10:47:45.410Z,7.50
2019-03-11T10:50:25.782Z,7.50
2019-03-11T10:53:06.506Z,7.60
2019-03-11T10:55:47.178Z,8.00
2019-03-11T10:58:29.197Z,7.40
2019-03-11T11:01:10.038Z,6.90
2019-03-11T11:03:50.770Z,6.20
2019-03-11T11:06:31.373Z,6.50
2019-03-11T11:09:11.992Z,8.00
2019-03-11T11:11:52.606Z,7.90
2019-03-11T11:14:33.321Z,7.10
2019-03-11T11:17:13.876Z,6.70
2019-03-11T11:20:02.957Z,6.90
2019-03-11T11:22:43.061Z,7.10
2019-03-11T11:25:31.456Z,7.20
2019-03-11T11:28:19.578Z,6.70
2019-03-11T11:31:07.819Z,6.20
2019-03-11T11:33:57.045Z,6.10
2019-03-11T11:36:45.826Z,6.00
2019-03-11T11:39:33.961Z,5.70
2019-03-11T11:42:22.052Z,5.70
2019-03-11T11:45:11.299Z,5.60
2019-03-11T11:47:59.621Z,5.50
2019-03-11T11:50:47.741Z,5.60
2019-03-11T11:53:36.035Z,6.20
2019-03-11T11:56:24.155Z,6.50
2019-03-11T11:59:12.323Z,6.30
2019-03-11T12:02:04.108Z,5.70
2019-03-11T12:04:50.437Z,5.60
2019-03-11T12:07:38.555Z,5.90
2019-03-11T12:10:26.921Z,7.90
2019-03-11T12:13:14.977Z,8.50
2019-03-11T12:16:03.139Z,7.30
2019-03-11T12:18:43.795Z,6.30
2019-03-11T12:21:24.801Z,5.70
2019-03-11T12:24:05.366Z,5.50
2019-03-11T12:26:46.256Z,5.40
2019-03-11T12:29:28.134Z,5.30
2019-03-11T12:32:08.962Z,5.20
2019-03-11T12:34:49.423Z,5.10
2019-03-11T12:37:30.737Z,5.00
2019-03-11T12:40:11.302Z,4.90
2019-03-11T12:42:50.644Z,4.80
2019-03-11T12:45:38.843Z,4.50
2019-03-11T12:48:27.078Z,4.50
2019-03-11T12:51:15.218Z,4.90
2019-03-11T12:54:03.278Z,5.90
2019-03-11T12:56:51.317Z,8.20
2019-03-11T12:59:40.743Z,9.40
2019-03-11T13:02:29.340Z,10.00
2019-03-11T13:05:17.937Z,8.90
2019-03-11T13:08:06.362Z,7.30
2019-03-11T13:10:54.505Z,6.20
2019-03-11T13:13:23.483Z,5.80
2019-03-11T13:16:11.559Z,5.40
2019-03-11T13:18:52.534Z,5.20
2019-03-11T13:21:33.222Z,5.30
2019-03-11T13:24:13.903Z,6.30
2019-03-11T13:26:54.607Z,7.80
2019-03-11T13:29:35.375Z,8.50
2019-03-11T13:32:16.127Z,8.70
2019-03-11T13:34:56.985Z,8.60
2019-03-11T13:37:37.310Z,8.50
2019-03-11T13:40:17.789Z,9.00
2019-03-11T13:42:58.416Z,9.20
2019-03-11T13:45:39.392Z,8.10
2019-03-11T13:48:20.405Z,7.10
2019-03-11T13:51:01.149Z,6.50
2019-03-11T13:53:41.846Z,6.00
2019-03-11T13:56:22.385Z,5.90
2019-03-11T13:59:03.546Z,6.00
2019-03-11T14:01:44.360Z,5.70
2019-03-11T14:04:25.621Z,5.60
2019-03-11T14:07:06.211Z,5.80
2019-03-11T14:09:46.746Z,5.90
2019-03-11T14:12:27.643Z,5.70
2019-03-11T14:15:08.398Z,5.80
2019-03-11T14:17:49.083Z,5.90
2019-03-11T14:20:29.937Z,5.70
2019-03-11T14:23:10.685Z,5.70
2019-03-11T14:25:51.497Z,5.60
2019-03-11T14:28:32.148Z,5.60
2019-03-11T14:31:12.710Z,5.40
2019-03-11T14:33:53.450Z,5.10
2019-03-11T14:36:34.169Z,4.90
2019-03-11T14:39:14.978Z,4.30
2019-03-11T14:41:55.643Z,3.90
2019-03-11T14:44:36.117Z,3.80
2019-03-11T14:47:05.962Z,4.30
2019-03-11T14:49:54.094Z,4.30
2019-03-11T14:53:02.966Z,4.40
2019-03-11T14:55:51.025Z,4.40
2019-03-11T14:58:39.148Z,4.50
2019-03-11T15:01:27.282Z,4.50
2019-03-11T15:04:15.569Z,4.50
2019-03-11T15:07:04.068Z,4.40
2019-03-11T15:09:52.353Z,4.30
2019-03-11T15:12:40.483Z,4.00
2019-03-11T15:15:28.623Z,3.30
2019-03-11T15:18:09.214Z,3.00
2019-03-11T15:20:49.870Z,2.90
2019-03-11T15:23:30.526Z,2.80
2019-03-11T15:26:11.400Z,3.10
2019-03-11T15:28:52.076Z,3.30
2019-03-11T15:31:32.689Z,3.70
2019-03-11T15:34:13.473Z,3.90
2019-03-11T15:36:54.278Z,4.00
2019-03-11T15:39:35.220Z,3.80
2019-03-11T15:42:15.826Z,3.70
2019-03-11T15:44:56.510Z,3.60
2019-03-11T15:47:36.918Z,3.60
2019-03-11T15:50:17.889Z,3.50
2019-03-11T15:52:58.253Z,3.50
2019-03-11T15:55:38.722Z,3.50
2019-03-11T15:58:19.249Z,3.40
2019-03-11T16:00:59.882Z,3.50
2019-03-11T16:03:40.434Z,3.50
2019-03-11T16:06:21.200Z,3.50
2019-03-11T16:09:02.443Z,3.40
2019-03-11T16:11:43.375Z,3.60
2019-03-11T16:14:23.841Z,3.50
2019-03-11T16:17:04.728Z,3.60
2019-03-11T16:19:45.312Z,3.70
2019-03-11T16:22:26.445Z,3.70
2019-03-11T16:25:07.643Z,3.70
2019-03-11T16:27:48.214Z,3.70
2019-03-11T16:30:28.780Z,3.60
2019-03-11T16:33:09.330Z,3.50
2019-03-11T16:41:46.737Z,3.40
2019-03-11T16:56:20.596Z,3.30
2019-03-11T16:58:59.715Z,3.30
2019-03-11T17:01:47.883Z,3.20
2019-03-11T17:04:36.208Z,3.20
2019-03-11T17:07:24.269Z,3.20
2019-03-11T17:10:12.698Z,3.30
2019-03-11T17:13:00.860Z,3.20
2019-03-11T17:15:48.989Z,3.10
2019-03-11T17:18:30.160Z,3.10
2019-03-11T17:21:11.121Z,3.00
2019-03-11T17:23:51.578Z,3.00
2019-03-11T17:26:20.602Z,3.10
2019-03-11T17:32:15.769Z,3.00
2019-03-11T17:35:04.022Z,3.00
2019-03-11T17:37:52.065Z,3.00
2019-03-11T17:40:40.501Z,3.10
2019-03-11T17:43:28.793Z,3.00
2019-03-11T17:46:17.232Z,3.00
2019-03-11T17:49:05.350Z,3.10
2019-03-11T17:51:53.409Z,3.10
2019-03-11T17:54:41.564Z,3.20
2019-03-11T17:57:29.605Z,3.10
2019-03-11T18:03:32.949Z,3.00
2019-03-11T18:06:21.239Z,3.00
2019-03-11T18:09:09.514Z,2.90
2019-03-11T18:11:57.621Z,2.90
2019-03-11T18:14:45.742Z,2.80
2019-03-11T18:17:25.201Z,2.80
2019-03-11T18:20:13.717Z,2.80
2019-03-11T18:25:49.483Z,2.80
2019-03-11T18:28:37.532Z,2.90
2019-03-11T18:37:00.967Z,2.80
2019-03-11T18:48:12.181Z,2.70
2019-03-11T18:59:24.787Z,2.80
2019-03-11T19:02:13.138Z,2.80
2019-03-11T19:25:03.393Z,2.80
2019-03-11T19:33:43.931Z,2.80
2019-03-11T19:45:21.408Z,2.50
2019-03-11T19:57:01.487Z,2.70
2019-03-11T20:02:54.913Z,2.70
2019-03-11T20:05:36.268Z,2.70
2019-03-11T20:11:16.549Z,2.70
2019-03-11T20:17:10.357Z,2.70
2019-03-11T20:23:03.959Z,2.60
2019-03-11T20:25:45.183Z,2.60
2019-03-11T20:28:26.457Z,2.50
2019-03-11T20:34:06.641Z,2.40
2019-03-11T20:36:47.503Z,2.50
2019-03-11T20:45:39.585Z,2.30
2019-03-11T20:54:24.407Z,2.30
2019-03-11T20:57:05.363Z,2.20
2019-03-11T20:59:44.898Z,2.20
2019-03-11T21:02:33.573Z,2.30
2019-03-11T21:05:23.280Z,2.30
2019-03-11T21:08:11.719Z,2.30
2019-03-11T21:10:59.972Z,2.40
2019-03-11T21:16:36.308Z,2.50
2019-03-11T21:19:24.589Z,2.40
2019-03-11T21:22:13.009Z,2.40
2019-03-11T21:25:01.508Z,2.30
2019-03-11T21:27:51.321Z,2.30
2019-03-11T21:30:39.723Z,2.30
2019-03-11T21:33:28.199Z,2.10
2019-03-11T21:36:16.706Z,2.10
2019-03-11T21:42:20.288Z,1.90
2019-03-11T21:45:09.235Z,1.90
2019-03-11T21:47:57.640Z,1.80
2019-03-11T21:50:46.096Z,1.90
2019-03-11T21:57:06.421Z,2.00
2019-03-11T21:59:54.808Z,2.00
2019-03-11T22:02:43.152Z,2.20
2019-03-11T22:05:31.472Z,2.20
2019-03-11T22:11:07.618Z,2.20
2019-03-11T22:13:55.993Z,2.10
2019-03-11T22:19:24.354Z,2.00
2019-03-11T22:25:03.811Z,1.80
2019-03-11T22:27:44.235Z,1.80
2019-03-11T22:30:24.606Z,1.80
2019-03-11T22:33:05.418Z,1.80
2019-03-11T22:35:46.622Z,1.90
2019-03-11T22:38:27.859Z,2.00
2019-03-11T22:44:21.575Z,2.00
2019-03-11T22:47:02.334Z,2.00
2019-03-11T22:49:43.394Z,2.00
2019-03-11T22:52:24.025Z,2.00
2019-03-11T22:55:04.698Z,2.00
2019-03-11T22:57:45.461Z,2.00
2019-03-11T23:00:26.655Z,2.10
2019-03-11T23:03:07.623Z,2.10
2019-03-11T23:05:57.624Z,2.30
2019-03-11T23:08:30.746Z,2.20
2019-03-11T23:11:11.535Z,2.30
2019-03-11T23:13:52.274Z,2.40
2019-03-11T23:16:32.886Z,2.40
2019-03-11T23:19:13.262Z,2.50
2019-03-11T23:21:54.090Z,2.60
2019-03-11T23:24:34.769Z,2.70
2019-03-11T23:30:28.475Z,2.50
2019-03-11T23:33:08.990Z,2.50
2019-03-11T23:35:49.374Z,2.50
2019-03-11T23:38:29.915Z,2.40
2019-03-11T23:41:10.453Z,2.30
2019-03-11T23:43:51.291Z,2.30
2019-03-11T23:49:45.242Z,2.20
2019-03-11T23:52:25.874Z,2.20
2019-03-11T23:58:05.883Z,2.40
